createdAt,value
2022-09-11T00:02:16.797Z,27.10
2022-09-11T00:05:07.445Z,29.27
2022-09-11T00:07:56.948Z,27.30
2022-09-11T00:10:46.987Z,26.00
2022-09-11T00:13:36.591Z,28.50
2022-09-11T00:16:27.404Z,25.87
2022-09-11T00:19:17.655Z,28.50
2022-09-11T00:22:07.844Z,29.00
2022-09-11T00:24:57.674Z,28.57
2022-09-11T00:27:46.655Z,30.27
2022-09-11T00:30:35.779Z,27.33
2022-09-11T00:33:24.649Z,27.87
2022-09-11T00:36:14.554Z,27.70
2022-09-11T00:39:04.896Z,25.40
2022-09-11T00:41:53.690Z,27.60
2022-09-11T00:45:00.223Z,28.07
2022-09-11T00:47:49.238Z,24.70
2022-09-11T00:50:38.148Z,26.97
2022-09-11T00:53:31.164Z,25.97
2022-09-11T00:56:22.662Z,27.37
2022-09-11T00:59:11.672Z,28.30
2022-09-11T01:02:00.667Z,28.00
2022-09-11T01:04:50.821Z,26.07
2022-09-11T01:07:40.491Z,24.97
2022-09-11T01:10:35.192Z,24.77
2022-09-11T01:13:29.198Z,25.10
2022-09-11T01:16:21.961Z,24.40
2022-09-11T01:19:20.418Z,26.17
2022-09-11T01:22:16.831Z,21.90
2022-09-11T01:25:10.136Z,25.80
2022-09-11T01:28:00.998Z,26.27
2022-09-11T01:30:53.973Z,26.10
2022-09-11T01:33:44.837Z,25.27
2022-09-11T01:36:35.400Z,24.07
2022-09-11T01:39:27.159Z,25.60
2022-09-11T01:42:19.231Z,25.70
2022-09-11T01:45:09.909Z,25.10
2022-09-11T01:48:00.399Z,26.30
2022-09-11T01:50:49.711Z,26.50
2022-09-11T01:53:40.592Z,25.27
2022-09-11T01:56:31.599Z,26.47
2022-09-11T01:59:26.131Z,25.93
2022-09-11T02:02:19.670Z,24.97
2022-09-11T02:05:15.714Z,26.20
2022-09-11T02:08:06.074Z,25.70
2022-09-11T02:10:59.004Z,25.70
2022-09-11T02:13:51.905Z,25.90
2022-09-11T02:16:46.139Z,24.63
2022-09-11T02:19:36.594Z,28.20
2022-09-11T02:22:25.613Z,27.37
2022-09-11T02:25:14.640Z,28.23
2022-09-11T02:28:03.507Z,30.30
2022-09-11T02:30:52.646Z,27.87
2022-09-11T02:33:45.459Z,29.60
2022-09-11T02:36:41.745Z,29.80
2022-09-11T02:39:36.570Z,27.27
2022-09-11T02:42:35.295Z,27.57
2022-09-11T02:45:30.459Z,30.20
2022-09-11T02:48:29.834Z,29.90
2022-09-11T02:51:22.789Z,28.70
2022-09-11T02:54:17.987Z,29.87
2022-09-11T02:57:09.631Z,28.27
2022-09-11T03:00:00.232Z,29.33
2022-09-11T03:02:49.334Z,27.57
2022-09-11T03:05:40.226Z,28.07
2022-09-11T03:08:31.426Z,29.10
2022-09-11T03:11:21.599Z,29.73
2022-09-11T03:14:10.712Z,29.93
2022-09-11T03:16:59.603Z,29.80
2022-09-11T03:19:48.394Z,29.53
2022-09-11T03:22:37.218Z,29.03
2022-09-11T03:25:28.140Z,31.40
2022-09-11T03:28:18.377Z,28.50
2022-09-11T03:31:07.716Z,28.87
2022-09-11T03:33:57.146Z,30.67
2022-09-11T03:36:46.230Z,33.80
2022-09-11T03:39:35.125Z,29.17
2022-09-11T03:42:23.941Z,33.20
2022-09-11T03:45:14.869Z,30.77
2022-09-11T03:48:04.007Z,30.00
2022-09-11T03:50:52.782Z,33.03
2022-09-11T03:53:41.700Z,31.83
2022-09-11T03:56:30.583Z,31.80
2022-09-11T03:59:20.288Z,31.67
2022-09-11T04:02:10.512Z,30.37
2022-09-11T04:04:59.514Z,31.63
2022-09-11T04:07:49.060Z,32.60
2022-09-11T04:10:38.218Z,31.27
2022-09-11T04:13:30.695Z,31.17
2022-09-11T04:16:20.952Z,33.20
2022-09-11T04:19:13.216Z,31.67
2022-09-11T04:22:03.845Z,35.43
2022-09-11T04:24:52.887Z,31.20
2022-09-11T04:27:41.779Z,31.10
2022-09-11T04:30:30.844Z,30.47
2022-09-11T04:33:19.675Z,37.27
2022-09-11T04:36:10.758Z,30.47
2022-09-11T04:39:00.361Z,31.37
2022-09-11T04:41:49.278Z,32.70
2022-09-11T04:44:39.074Z,29.07
2022-09-11T04:47:27.924Z,28.77
2022-09-11T04:50:16.894Z,28.43
2022-09-11T04:53:07.094Z,30.90
2022-09-11T04:56:02.450Z,29.60
2022-09-11T04:58:55.005Z,29.00
2022-09-11T05:01:44.504Z,30.40
2022-09-11T05:04:33.358Z,31.27
2022-09-11T05:07:22.146Z,30.67
2022-09-11T05:10:12.420Z,30.80
2022-09-11T05:13:01.204Z,31.63
2022-09-11T05:15:50.021Z,32.50
2022-09-11T05:18:39.830Z,30.73
2022-09-11T05:21:29.506Z,29.30
2022-09-11T05:24:18.590Z,29.73
2022-09-11T05:27:09.639Z,30.90
2022-09-11T05:29:58.415Z,29.80
2022-09-11T05:32:48.008Z,33.80
2022-09-11T05:35:36.803Z,30.87
2022-09-11T05:38:26.468Z,30.13
2022-09-11T05:41:16.435Z,35.37
2022-09-11T05:44:07.106Z,32.17
2022-09-11T05:46:56.031Z,27.03
2022-09-11T05:49:44.819Z,27.10
2022-09-11T05:52:34.839Z,27.87
2022-09-11T05:55:23.666Z,25.07
2022-09-11T05:58:12.575Z,23.47
2022-09-11T06:01:05.967Z,24.40
2022-09-11T06:03:55.167Z,23.93
2022-09-11T06:06:44.233Z,25.17
2022-09-11T06:09:33.008Z,23.37
2022-09-11T06:12:21.807Z,22.90
2022-09-11T06:15:30.156Z,24.20
2022-09-11T06:18:21.754Z,23.20
2022-09-11T06:21:13.148Z,27.07
2022-09-11T06:24:02.150Z,20.87
2022-09-11T06:26:51.119Z,22.07
2022-09-11T06:29:39.896Z,22.67
2022-09-11T06:32:28.731Z,20.63
2022-09-11T06:35:18.930Z,21.93
2022-09-11T06:38:07.918Z,20.37
2022-09-11T06:40:56.757Z,19.20
2022-09-11T06:43:45.914Z,20.57
2022-09-11T06:46:35.306Z,17.70
2022-09-11T06:49:24.122Z,17.47
2022-09-11T06:52:14.275Z,17.07
2022-09-11T06:55:03.083Z,15.07
2022-09-11T06:57:51.846Z,11.30
2022-09-11T07:00:40.999Z,13.17
2022-09-11T07:03:30.138Z,11.77
2022-09-11T07:06:20.215Z,10.13
2022-09-11T07:09:11.560Z,11.73
2022-09-11T07:12:00.408Z,11.60
2022-09-11T07:14:49.179Z,12.77
2022-09-11T07:17:37.942Z,11.23
2022-09-11T07:20:27.011Z,10.73
2022-09-11T07:23:16.026Z,9.80
2022-09-11T07:26:07.547Z,10.40
2022-09-11T07:28:57.564Z,11.67
2022-09-11T07:31:46.461Z,9.97
2022-09-11T07:34:35.240Z,9.30
2022-09-11T07:37:24.062Z,10.73
2022-09-11T07:40:13.083Z,9.97
2022-09-11T07:43:03.722Z,8.90
2022-09-11T07:45:56.485Z,9.60
2022-09-11T07:48:45.398Z,11.00
2022-09-11T07:51:34.788Z,10.30
2022-09-11T07:54:23.714Z,10.90
2022-09-11T07:57:12.570Z,11.70
2022-09-11T08:00:02.740Z,12.03
2022-09-11T08:02:51.987Z,10.20
2022-09-11T08:05:40.882Z,13.63
2022-09-11T08:08:30.052Z,12.87
2022-09-11T08:11:19.030Z,11.30
2022-09-11T08:14:08.872Z,10.90
2022-09-11T08:16:59.086Z,10.27
2022-09-11T08:19:47.868Z,12.10
2022-09-11T08:22:36.682Z,12.93
2022-09-11T08:25:25.450Z,12.57
2022-09-11T08:28:14.996Z,10.70
2022-09-11T08:31:03.820Z,12.07
2022-09-11T08:33:54.394Z,12.60
2022-09-11T08:36:43.224Z,11.80
2022-09-11T08:39:32.252Z,11.63
2022-09-11T08:42:21.082Z,11.50
2022-09-11T08:45:15.609Z,11.30
2022-09-11T08:48:07.020Z,12.03
2022-09-11T08:50:57.198Z,11.50
2022-09-11T08:53:46.314Z,12.80
2022-09-11T08:56:36.234Z,12.70
2022-09-11T08:59:31.422Z,12.90
2022-09-11T09:02:26.973Z,12.80
2022-09-11T09:05:21.736Z,12.37
2022-09-11T09:08:19.157Z,13.73
2022-09-11T09:11:13.803Z,12.23
2022-09-11T09:14:08.950Z,12.73
2022-09-11T09:16:59.786Z,13.10
2022-09-11T09:19:51.128Z,13.13
2022-09-11T09:22:41.146Z,12.77
2022-09-11T09:25:32.562Z,13.53
2022-09-11T09:28:24.696Z,13.03
2022-09-11T09:31:14.914Z,10.20
2022-09-11T09:34:06.060Z,11.40
2022-09-11T09:36:58.901Z,11.13
2022-09-11T09:39:48.230Z,13.03
2022-09-11T09:42:48.551Z,10.47
2022-09-11T09:45:42.099Z,11.27
2022-09-11T09:48:37.015Z,11.40
2022-09-11T09:51:25.810Z,11.43
2022-09-11T09:54:16.893Z,11.27
2022-09-11T09:57:07.287Z,11.87
2022-09-11T10:00:01.667Z,12.00
2022-09-11T10:02:53.914Z,9.03
2022-09-11T10:05:43.425Z,9.77
2022-09-11T10:08:34.090Z,11.03
2022-09-11T10:11:29.527Z,11.60
2022-09-11T10:14:49.243Z,8.30
2022-09-11T10:17:35.130Z,10.30
2022-09-11T10:20:28.600Z,12.33
2022-09-11T10:23:25.647Z,10.40
2022-09-11T10:26:16.986Z,10.40
2022-09-11T10:29:08.865Z,10.00
2022-09-11T10:31:59.142Z,10.10
2022-09-11T10:34:49.547Z,10.87
2022-09-11T10:37:39.060Z,11.20
2022-09-11T10:40:27.943Z,10.70
2022-09-11T10:43:24.471Z,11.03
2022-09-11T10:46:28.661Z,10.73
2022-09-11T10:49:19.243Z,9.20
2022-09-11T10:52:19.344Z,11.10
2022-09-11T10:55:10.012Z,11.90
2022-09-11T10:58:00.635Z,11.80
2022-09-11T11:00:51.678Z,11.27
2022-09-11T11:03:40.528Z,11.30
2022-09-11T11:06:40.909Z,10.93
2022-09-11T11:09:37.623Z,11.40
2022-09-11T11:12:34.836Z,11.90
2022-09-11T11:15:30.952Z,12.93
2022-09-11T11:18:24.646Z,10.73
2022-09-11T11:21:19.794Z,12.77
2022-09-11T11:24:17.651Z,12.57
2022-09-11T11:27:22.287Z,10.87
2022-09-11T11:30:13.061Z,11.50
2022-09-11T11:33:11.392Z,10.10
2022-09-11T11:36:04.257Z,10.03
2022-09-11T11:39:00.209Z,9.98
2022-09-11T11:41:52.153Z,10.80
2022-09-11T11:44:47.315Z,11.43
2022-09-11T11:47:38.441Z,10.68
2022-09-11T11:50:31.873Z,13.05
2022-09-11T11:53:22.665Z,12.85
2022-09-11T11:56:16.571Z,12.38
2022-09-11T11:59:07.832Z,11.82
2022-09-11T12:02:03.204Z,12.75
2022-09-11T12:04:54.316Z,13.68
2022-09-11T12:07:47.217Z,13.25
2022-09-11T12:10:37.890Z,13.48
2022-09-11T12:13:31.209Z,14.05
2022-09-11T12:16:21.645Z,12.77
2022-09-11T12:19:19.643Z,12.52
2022-09-11T12:22:12.942Z,10.45
2022-09-11T12:25:03.271Z,10.13
2022-09-11T12:27:53.602Z,10.65
2022-09-11T12:30:57.962Z,10.88
2022-09-11T12:33:52.500Z,10.85
2022-09-11T12:36:54.253Z,11.32
2022-09-11T12:39:50.526Z,14.50
2022-09-11T12:42:56.577Z,14.63
2022-09-11T12:45:47.721Z,14.52
2022-09-11T12:48:39.583Z,14.60
2022-09-11T12:51:32.809Z,13.02
2022-09-11T12:54:26.211Z,16.40
2022-09-11T12:57:19.060Z,15.18
2022-09-11T13:00:10.764Z,15.40
2022-09-11T13:03:00.191Z,15.43
2022-09-11T13:05:55.086Z,13.82
2022-09-11T13:08:48.410Z,16.25
2022-09-11T13:11:49.302Z,14.15
2022-09-11T13:14:48.288Z,14.23
2022-09-11T13:17:47.092Z,12.68
2022-09-11T13:20:36.036Z,12.05
2022-09-11T13:23:25.070Z,13.93
2022-09-11T13:26:24.214Z,14.90
2022-09-11T13:29:15.163Z,11.95
2022-09-11T13:32:11.258Z,13.65
2022-09-11T13:35:01.785Z,14.40
2022-09-11T13:37:54.999Z,12.93
2022-09-11T13:40:46.835Z,14.27
2022-09-11T13:43:37.808Z,12.82
2022-09-11T13:46:28.648Z,14.20
2022-09-11T13:49:26.614Z,13.00
2022-09-11T13:52:15.700Z,15.02
2022-09-11T13:55:10.736Z,14.45
2022-09-11T13:58:00.668Z,14.65
2022-09-11T14:00:50.439Z,13.50
2022-09-11T14:03:44.338Z,14.82
2022-09-11T14:06:37.894Z,14.20
2022-09-11T14:09:26.808Z,11.90
2022-09-11T14:12:15.699Z,14.63
2022-09-11T14:15:07.251Z,14.20
2022-09-11T14:17:56.126Z,13.90
2022-09-11T14:20:50.347Z,14.15
2022-09-11T14:23:42.880Z,13.65
2022-09-11T14:26:42.034Z,12.65
2022-09-11T14:29:31.696Z,13.15
2022-09-11T14:32:33.772Z,12.60
2022-09-11T14:35:24.042Z,13.15
2022-09-11T14:38:15.550Z,13.65
2022-09-11T14:41:05.032Z,14.73
2022-09-11T14:43:53.911Z,14.77
2022-09-11T14:46:43.191Z,14.38
2022-09-11T14:49:32.095Z,14.25
2022-09-11T14:52:22.168Z,13.00
2022-09-11T14:55:15.670Z,13.05
2022-09-11T14:58:04.776Z,12.65
2022-09-11T15:00:53.961Z,12.50
2022-09-11T15:03:42.865Z,11.95
2022-09-11T15:06:31.788Z,12.90
2022-09-11T15:09:21.028Z,12.73
2022-09-11T15:12:12.320Z,13.45
2022-09-11T15:15:01.978Z,17.20
2022-09-11T15:17:51.091Z,14.50
2022-09-11T15:20:40.118Z,12.70
2022-09-11T15:23:29.214Z,13.63
2022-09-11T15:26:18.123Z,12.35
2022-09-11T15:29:09.933Z,10.48
2022-09-11T15:32:01.020Z,11.80
2022-09-11T15:34:51.749Z,11.05
2022-09-11T15:37:40.600Z,10.05
2022-09-11T15:40:29.489Z,8.73
2022-09-11T15:43:19.010Z,11.98
2022-09-11T15:46:11.292Z,9.85
2022-09-11T15:49:00.668Z,11.07
2022-09-11T15:51:49.527Z,10.45
2022-09-11T15:54:38.376Z,10.90
2022-09-11T15:57:27.172Z,9.75
2022-09-11T16:00:16.296Z,7.57
2022-09-11T16:03:07.727Z,8.00
2022-09-11T16:05:57.030Z,7.53
2022-09-11T16:08:45.833Z,6.37
2022-09-11T16:11:35.129Z,8.93
2022-09-11T16:14:24.992Z,7.90
2022-09-11T16:17:16.785Z,7.47
2022-09-11T16:20:07.555Z,7.77
2022-09-11T16:22:56.517Z,7.30
2022-09-11T16:25:45.311Z,7.40
2022-09-11T16:28:34.904Z,7.83
2022-09-11T16:31:23.759Z,7.77
2022-09-11T16:34:14.932Z,7.63
2022-09-11T16:37:05.534Z,7.10
2022-09-11T16:39:54.501Z,7.27
2022-09-11T16:42:43.382Z,7.23
2022-09-11T16:45:32.848Z,8.00
2022-09-11T16:48:21.649Z,6.87
2022-09-11T16:51:10.718Z,7.03
2022-09-11T16:54:00.897Z,7.13
2022-09-11T16:56:49.791Z,6.50
2022-09-11T16:59:38.609Z,6.37
2022-09-11T17:02:27.773Z,7.10
2022-09-11T17:05:17.817Z,6.00
2022-09-11T17:08:06.647Z,6.47
2022-09-11T17:10:57.577Z,6.40
2022-09-11T17:13:46.507Z,5.90
2022-09-11T17:16:35.777Z,5.63
2022-09-11T17:19:24.572Z,5.60
2022-09-11T17:22:15.205Z,5.47
2022-09-11T17:25:04.009Z,5.70
2022-09-11T17:27:54.220Z,6.70
2022-09-11T17:30:43.089Z,6.17
2022-09-11T17:33:33.172Z,7.90
2022-09-11T17:36:24.633Z,7.73
2022-09-11T17:39:13.540Z,8.17
2022-09-11T17:42:02.384Z,11.97
2022-09-11T17:44:52.606Z,11.63
2022-09-11T17:47:42.687Z,11.43
2022-09-11T17:50:31.566Z,11.77
2022-09-11T17:53:22.160Z,11.00
2022-09-11T17:56:12.232Z,12.30
2022-09-11T17:59:01.486Z,12.23
2022-09-11T18:01:51.888Z,11.70
2022-09-11T18:04:40.744Z,11.80
2022-09-11T18:07:29.607Z,13.10
2022-09-11T18:10:19.624Z,13.10
2022-09-11T18:13:09.255Z,14.43
2022-09-11T18:15:58.067Z,13.80
2022-09-11T18:18:48.310Z,14.30
2022-09-11T18:21:38.473Z,15.60
2022-09-11T18:24:29.976Z,14.27
2022-09-11T18:27:19.867Z,15.20
2022-09-11T18:30:09.929Z,16.03
2022-09-11T18:32:59.940Z,15.03
2022-09-11T18:35:50.841Z,16.30
2022-09-11T18:38:40.130Z,15.53
2022-09-11T18:41:29.588Z,15.87
2022-09-11T18:44:20.056Z,16.17
2022-09-11T18:47:09.439Z,15.90
2022-09-11T18:49:59.637Z,15.73
2022-09-11T18:52:51.366Z,15.27
2022-09-11T18:55:40.472Z,15.60
2022-09-11T18:58:31.103Z,16.97
2022-09-11T19:01:20.699Z,15.27
2022-09-11T19:04:10.213Z,15.90
2022-09-11T19:07:00.241Z,15.40
2022-09-11T19:09:50.717Z,15.50
2022-09-11T19:12:40.235Z,16.43
2022-09-11T19:15:31.058Z,16.50
2022-09-11T19:18:21.473Z,17.23
2022-09-11T19:21:12.269Z,17.97
2022-09-11T19:24:01.942Z,18.40
2022-09-11T19:26:52.765Z,18.30
2022-09-11T19:29:41.556Z,19.80
2022-09-11T19:32:31.054Z,19.30
2022-09-11T19:35:20.286Z,19.10
2022-09-11T19:38:09.188Z,21.27
2022-09-11T19:41:00.267Z,21.20
2022-09-11T19:43:50.672Z,22.07
2022-09-11T19:46:39.455Z,23.47
2022-09-11T19:49:28.620Z,21.60
2022-09-11T19:52:17.813Z,23.37
2022-09-11T19:55:06.907Z,22.10
2022-09-11T19:57:55.690Z,21.67
2022-09-11T20:00:46.202Z,21.20
2022-09-11T20:03:35.076Z,21.37
2022-09-11T20:06:24.941Z,20.63
2022-09-11T20:09:30.864Z,20.20
2022-09-11T20:12:21.135Z,20.00
2022-09-11T20:15:11.263Z,21.93
2022-09-11T20:18:01.388Z,19.97
2022-09-11T20:20:50.266Z,20.07
2022-09-11T20:23:39.931Z,20.77
2022-09-11T20:26:29.326Z,20.60
2022-09-11T20:29:18.104Z,20.60
2022-09-11T20:32:07.481Z,19.00
2022-09-11T20:34:57.593Z,20.27
2022-09-11T20:37:46.385Z,18.90
2022-09-11T20:40:35.224Z,20.20
2022-09-11T20:43:24.014Z,21.20
2022-09-11T20:46:12.878Z,20.67
2022-09-11T20:49:02.988Z,19.90
2022-09-11T20:51:56.314Z,20.93
2022-09-11T20:54:45.229Z,19.97
2022-09-11T20:57:34.122Z,20.73
2022-09-11T21:00:22.973Z,19.80
2022-09-11T21:03:11.766Z,20.27
2022-09-11T21:06:06.760Z,20.60
2022-09-11T21:08:57.659Z,23.90
2022-09-11T21:11:46.623Z,22.07
2022-09-11T21:14:35.443Z,21.03
2022-09-11T21:17:24.220Z,21.40
2022-09-11T21:20:13.003Z,22.27
2022-09-11T21:23:01.816Z,24.83
2022-09-11T21:25:52.860Z,26.60
2022-09-11T21:28:42.229Z,25.27
2022-09-11T21:31:31.347Z,24.63
2022-09-11T21:34:20.170Z,27.00
2022-09-11T21:37:09.021Z,27.80
2022-09-11T21:39:57.827Z,25.87
2022-09-11T21:42:48.114Z,26.70
2022-09-11T21:45:36.900Z,28.10
2022-09-11T21:48:25.799Z,29.17
2022-09-11T21:51:15.878Z,29.30
2022-09-11T21:54:04.862Z,27.43
2022-09-11T21:56:53.699Z,29.20
2022-09-11T21:59:43.848Z,29.80
2022-09-11T22:02:32.642Z,30.07
2022-09-11T22:05:21.451Z,28.90
2022-09-11T22:08:10.372Z,29.90
2022-09-11T22:11:05.350Z,28.20
2022-09-11T22:13:54.474Z,27.50
2022-09-11T22:16:44.600Z,26.27
2022-09-11T22:19:33.402Z,29.30
2022-09-11T22:22:22.968Z,28.97
2022-09-11T22:25:11.831Z,27.97
2022-09-11T22:28:00.621Z,28.43
2022-09-11T22:30:51.834Z,26.17
2022-09-11T22:33:42.950Z,26.67
2022-09-11T22:36:32.232Z,27.03
2022-09-11T22:39:21.594Z,29.97
2022-09-11T22:42:10.389Z,30.27
2022-09-11T22:44:59.209Z,29.10
2022-09-11T22:47:48.384Z,28.00
2022-09-11T22:50:38.920Z,26.50
2022-09-11T22:53:28.556Z,27.50
2022-09-11T22:56:17.423Z,27.47
2022-09-11T22:59:06.630Z,24.13
2022-09-11T23:01:55.448Z,27.30
2022-09-11T23:05:04.264Z,25.57
2022-09-11T23:07:53.677Z,27.17
2022-09-11T23:10:43.036Z,25.60
2022-09-11T23:13:32.827Z,23.93
2022-09-11T23:16:22.813Z,25.23
2022-09-11T23:19:13.447Z,25.77
2022-09-11T23:22:02.228Z,23.80
2022-09-11T23:24:57.787Z,25.47
2022-09-11T23:27:46.611Z,23.77
2022-09-11T23:30:35.424Z,24.60
2022-09-11T23:33:25.507Z,24.00
2022-09-11T23:36:14.909Z,24.60
2022-09-11T23:39:03.874Z,24.80
2022-09-11T23:41:54.152Z,24.57
2022-09-11T23:44:42.937Z,23.80
2022-09-11T23:47:31.780Z,24.67
2022-09-11T23:50:20.690Z,26.00
2022-09-11T23:53:09.787Z,24.20
2022-09-11T23:55:59.628Z,23.77
2022-09-11T23:58:49.786Z,24.77
